Green Lake, Wisconsin
Current Conditions -  °F | °C
As of 5:53 AM on Friday 21 Nov 2014 (Local Time) from KOSH Reporting Station
Clear Clear  
Wind Chill: -8°   Ceiling: Unl
Heat Index:   Visibility: 10mi
Dew Point: -3°   Wind: 5mph
Humidity: 80%   Direction: 190°S
Pressure: 30.36"   Gusts: NA
Location:  43.84°N, 88.96°W
Report Text: KOSH 211153Z 19004KT 10SM CLR M17/M19 A3036 RMK AO2 SLP313 T11671194 11133 21172 53014
Loading
Personal Weather Stations






























Interactive Weather Map New forecast layout! Learn more

10-Day Weather Forecast

Advertisements
Track Severe Weather on mobile